Terminal Aerodrome Forecast
Issued by NWS

Current Version | Previous Version | Graphics & Text | Print | Product List | Glossary On
Versions: 1 2 3 4 5 6 7 8 9 10 11 12 13 14 15 16 17 18 19
925
FTUS41 KPBZ 201459 AAA
TAFMGW
TAF AMD
KMGW 201459Z 2015/2112 22005KT P6SM SCT025 BKN120
     FM210000 20005KT 5SM -RA BR OVC035
     FM210200 18003KT 2SM -RA BR OVC015
     FM210500 VRB03KT 3SM -RA BR OVC008
     FM210800 VRB03KT 5SM BR OVC008=

USA.gov is the U.S. government's official web portal to all federal, state and local government web resources and services.